Inicio METAR Ruta Wind Satelite

Informe Meteorológico

Fecha: 2020/09/19 20:33:00 Local
2020.09.20 01:33 UTC


Estado: VENCIDO
Operación:VFR
Monteria / Los Garzones, Colombia (SKMR) 08-49N 075-51W 26M
2020.09.19 2300 UTC
Wind: from the NW (320 degrees) at 12 MPH (10 KT):0
Visibility: greater than 7 mile(s):0
Sky conditions: partly cloudy
Temperature: 84 F (29 C)
Dew Point: 75 F (24 C)
Relative Humidity: 74%
Pressure (altimeter): 29.74 in. Hg (1007 hPa)
ob: SKMR 192300Z 32010KT 9999 SCT020 29/24 A2974
cycle: 23

SKMR 192200Z 32004KT 9999 FEW020 32/23 A2973
SKMR 192100Z 36003KT 9999 FEW020 33/23 A2973
SKMR 192000Z 27004KT 9999 SCT020 33/24 A2975
SKMR 191900Z 32003KT 9999 SCT020 32/23 A2978
SKMR 191800Z 30005KT 9999 BKN020 32/24 A2982